createdAt,value
2018-11-02T00:01:57.877Z,73.33
2018-11-02T00:04:26.571Z,73.21
2018-11-02T00:06:55.259Z,73.36
2018-11-02T00:09:23.947Z,73.31
2018-11-02T00:11:52.662Z,73.19
2018-11-02T00:14:21.354Z,73.41
2018-11-02T00:16:50.002Z,73.51
2018-11-02T00:19:22.784Z,73.79
2018-11-02T00:21:51.433Z,73.83
2018-11-02T00:24:20.102Z,73.45
2018-11-02T00:26:48.830Z,73.36
2018-11-02T00:29:17.486Z,73.19
2018-11-02T00:31:46.261Z,73.31
2018-11-02T00:34:14.896Z,73.15
2018-11-02T00:36:43.721Z,73.46
2018-11-02T00:39:12.401Z,73.62
2018-11-02T00:41:41.118Z,73.70
2018-11-02T00:44:10.659Z,74.14
2018-11-02T00:46:39.868Z,74.10
2018-11-02T00:49:09.239Z,73.76
2018-11-02T00:51:38.489Z,73.80
2018-11-02T00:54:07.460Z,73.78
2018-11-02T00:56:36.225Z,73.88
2018-11-02T00:59:04.940Z,74.27
2018-11-02T01:01:33.621Z,73.95
2018-11-02T01:04:02.356Z,73.72
2018-11-02T01:06:31.044Z,73.95
2018-11-02T01:08:59.716Z,74.02
2018-11-02T01:11:28.416Z,73.97
2018-11-02T01:13:57.738Z,73.95
2018-11-02T01:16:26.485Z,74.13
2018-11-02T01:18:55.170Z,74.17
2018-11-02T01:21:23.869Z,74.22
2018-11-02T01:23:52.582Z,74.21
2018-11-02T01:26:21.232Z,74.19
2018-11-02T01:28:49.926Z,74.30
2018-11-02T01:31:18.640Z,73.94
2018-11-02T01:33:47.298Z,74.31
2018-11-02T01:36:16.007Z,73.90
2018-11-02T01:38:44.684Z,73.91
2018-11-02T01:41:13.692Z,74.10
2018-11-02T01:43:42.358Z,74.10
2018-11-02T01:46:11.329Z,74.09
2018-11-02T01:48:40.067Z,74.41
2018-11-02T01:51:08.725Z,74.18
2018-11-02T01:53:37.430Z,73.97
2018-11-02T01:56:06.121Z,74.20
2018-11-02T01:58:34.784Z,74.36
2018-11-02T02:01:03.493Z,74.06
2018-11-02T02:03:32.149Z,73.90
2018-11-02T02:06:00.866Z,74.20
2018-11-02T02:08:29.549Z,74.36
2018-11-02T02:10:58.254Z,74.74
2018-11-02T02:13:27.103Z,74.66
2018-11-02T02:15:55.726Z,74.79
2018-11-02T02:18:24.364Z,75.01
2018-11-02T02:20:53.120Z,74.98
2018-11-02T02:23:21.836Z,75.27
2018-11-02T02:25:50.541Z,75.76
2018-11-02T02:28:19.200Z,75.35
2018-11-02T02:30:47.922Z,75.35
2018-11-02T02:33:16.655Z,75.53
2018-11-02T02:35:45.373Z,75.78
2018-11-02T02:38:14.133Z,75.76
2018-11-02T02:40:42.824Z,75.87
2018-11-02T02:43:11.507Z,75.95
2018-11-02T02:45:40.214Z,75.59
2018-11-02T02:48:08.945Z,75.73
2018-11-02T02:50:37.799Z,75.53
2018-11-02T02:53:06.645Z,76.10
2018-11-02T02:55:35.298Z,75.76
2018-11-02T02:58:04.021Z,75.89
2018-11-02T03:00:32.716Z,76.25
2018-11-02T03:03:01.447Z,76.09
2018-11-02T03:05:30.180Z,76.40
2018-11-02T03:07:58.869Z,76.92
2018-11-02T03:10:27.653Z,76.86
2018-11-02T03:12:56.344Z,77.25
2018-11-02T03:15:25.059Z,77.14
2018-11-02T03:17:53.825Z,77.03
2018-11-02T03:20:22.559Z,77.22
2018-11-02T03:22:51.245Z,77.69
2018-11-02T03:25:20.053Z,77.31
2018-11-02T03:27:48.735Z,77.91
2018-11-02T03:30:18.291Z,77.64
2018-11-02T03:32:47.017Z,77.83
2018-11-02T03:35:15.767Z,78.13
2018-11-02T03:37:44.453Z,78.64
2018-11-02T03:40:13.177Z,78.49
2018-11-02T03:42:42.212Z,78.75
2018-11-02T03:45:10.904Z,78.81
2018-11-02T03:47:39.676Z,78.99
2018-11-02T03:50:09.692Z,79.20
2018-11-02T03:52:38.709Z,79.12
2018-11-02T03:55:08.161Z,79.19
2018-11-02T03:57:36.874Z,78.90
2018-11-02T04:00:10.514Z,78.90
2018-11-02T04:02:39.544Z,78.77
2018-11-02T04:05:08.984Z,79.09
2018-11-02T04:07:37.728Z,79.08
2018-11-02T04:10:08.145Z,79.45
2018-11-02T04:12:36.863Z,79.49
2018-11-02T04:15:05.725Z,79.37
2018-11-02T04:17:34.457Z,79.35
2018-11-02T04:20:03.176Z,79.70
2018-11-02T04:22:31.962Z,79.70
2018-11-02T04:25:00.685Z,79.82
2018-11-02T04:27:29.488Z,79.79
2018-11-02T04:29:58.185Z,79.93
2018-11-02T04:32:26.928Z,79.90
2018-11-02T04:34:55.802Z,79.49
2018-11-02T04:37:24.563Z,79.89
2018-11-02T04:39:53.249Z,79.86
2018-11-02T04:42:22.030Z,80.17
2018-11-02T04:44:50.680Z,79.89
2018-11-02T04:47:19.433Z,80.47
2018-11-02T04:49:48.149Z,80.03
2018-11-02T04:52:16.857Z,80.19
2018-11-02T04:54:45.574Z,80.64
2018-11-02T04:57:14.413Z,80.21
2018-11-02T04:59:43.128Z,80.79
2018-11-02T05:02:11.835Z,80.57
2018-11-02T05:04:40.563Z,80.67
2018-11-02T05:07:09.265Z,80.85
2018-11-02T05:09:38.022Z,80.92
2018-11-02T05:12:07.034Z,80.87
2018-11-02T05:14:36.049Z,80.84
2018-11-02T05:17:04.768Z,80.92
2018-11-02T05:19:33.488Z,80.68
2018-11-02T05:22:02.177Z,80.88
2018-11-02T05:24:31.001Z,80.49
2018-11-02T05:26:59.757Z,80.85
2018-11-02T05:29:28.524Z,81.19
2018-11-02T05:31:57.213Z,80.59
2018-11-02T05:34:25.953Z,80.96
2018-11-02T05:36:54.695Z,80.83
2018-11-02T05:39:23.776Z,80.39
2018-11-02T05:41:52.551Z,80.64
2018-11-02T05:44:21.258Z,80.68
2018-11-02T05:46:49.984Z,80.42
2018-11-02T05:49:18.690Z,80.60
2018-11-02T05:51:47.393Z,80.87
2018-11-02T05:54:16.135Z,80.79
2018-11-02T05:56:44.836Z,80.22
2018-11-02T05:59:13.496Z,79.95
2018-11-02T06:01:42.212Z,79.72
2018-11-02T06:04:10.925Z,80.17
2018-11-02T06:06:39.688Z,80.23
2018-11-02T06:09:08.977Z,79.83
2018-11-02T06:11:38.396Z,80.17
2018-11-02T06:14:07.110Z,80.39
2018-11-02T06:16:35.872Z,80.19
2018-11-02T06:19:04.584Z,80.55
2018-11-02T06:25:35.751Z,81.87
2018-11-02T06:28:54.303Z,81.01
2018-11-02T06:31:22.996Z,80.93
2018-11-02T06:33:51.685Z,80.92
2018-11-02T06:36:20.357Z,80.55
2018-11-02T06:38:49.157Z,80.89
2018-11-02T06:41:17.815Z,81.22
2018-11-02T06:43:46.502Z,81.14
2018-11-02T06:46:15.330Z,81.55
2018-11-02T06:48:44.192Z,81.25
2018-11-02T06:51:12.891Z,81.13
2018-11-02T06:53:41.591Z,80.82
2018-11-02T06:57:39.869Z,80.89
2018-11-02T07:00:11.369Z,80.72
2018-11-02T07:02:41.051Z,80.19
2018-11-02T07:05:10.433Z,79.10
2018-11-02T07:07:39.498Z,79.15
2018-11-02T07:10:09.298Z,78.89
2018-11-02T07:12:38.247Z,79.18
2018-11-02T07:15:07.716Z,79.17
2018-11-02T07:17:36.434Z,78.97
2018-11-02T07:20:06.173Z,78.17
2018-11-02T07:22:34.891Z,78.43
2018-11-02T07:25:03.720Z,78.15
2018-11-02T07:27:32.432Z,77.75
2018-11-02T07:30:01.294Z,77.65
2018-11-02T07:32:30.050Z,76.66
2018-11-02T07:34:58.726Z,76.52
2018-11-02T07:37:27.476Z,76.20
2018-11-02T07:39:56.134Z,75.48
2018-11-02T07:42:24.993Z,75.42
2018-11-02T07:44:53.647Z,75.50
2018-11-02T07:47:22.416Z,74.46
2018-11-02T07:49:52.151Z,73.78
2018-11-02T07:52:20.869Z,73.55
2018-11-02T07:54:49.550Z,73.31
2018-11-02T07:57:18.318Z,72.86
2018-11-02T07:59:47.089Z,71.67
2018-11-02T08:02:15.783Z,71.91
2018-11-02T08:04:44.485Z,71.93
2018-11-02T08:07:13.310Z,71.66
2018-11-02T08:09:42.336Z,70.44
2018-11-02T08:12:11.092Z,70.33
2018-11-02T08:14:39.840Z,70.43
2018-11-02T08:17:08.753Z,69.86
2018-11-02T08:19:38.110Z,69.69
2018-11-02T08:22:06.877Z,69.56
2018-11-02T08:24:35.688Z,69.20
2018-11-02T08:27:04.397Z,69.11
2018-11-02T08:29:33.110Z,69.00
2018-11-02T08:32:01.898Z,69.14
2018-11-02T08:34:30.505Z,68.67
2018-11-02T08:36:59.285Z,68.31
2018-11-02T08:39:27.969Z,68.12
2018-11-02T08:41:57.049Z,67.42
2018-11-02T08:44:25.736Z,67.03
2018-11-02T08:46:54.481Z,66.53
2018-11-02T08:49:23.272Z,66.96
2018-11-02T08:51:52.016Z,66.57
2018-11-02T08:54:20.670Z,66.40
2018-11-02T08:56:49.360Z,66.40
2018-11-02T08:59:18.148Z,66.95
2018-11-02T09:01:46.761Z,66.41
2018-11-02T09:04:15.424Z,65.62
2018-11-02T09:06:44.158Z,65.79
2018-11-02T09:09:13.096Z,65.58
2018-11-02T09:11:41.796Z,65.10
2018-11-02T09:14:10.484Z,64.13
2018-11-02T09:16:39.285Z,63.78
2018-11-02T09:19:08.235Z,62.00
2018-11-02T09:21:37.025Z,62.27
2018-11-02T09:24:05.941Z,60.26
2018-11-02T09:26:34.624Z,59.46
2018-11-02T09:29:03.426Z,57.66
2018-11-02T09:31:32.135Z,56.91
2018-11-02T09:34:00.842Z,56.53
2018-11-02T09:36:29.605Z,55.13
2018-11-02T09:38:58.304Z,55.44
2018-11-02T09:41:27.024Z,55.78
2018-11-02T09:43:55.866Z,53.78
2018-11-02T09:46:24.576Z,54.29
2018-11-02T09:48:54.079Z,54.03
2018-11-02T09:51:22.788Z,53.15
2018-11-02T09:53:53.799Z,53.08
2018-11-02T09:56:22.545Z,51.99
2018-11-02T09:58:51.266Z,50.87
2018-11-02T10:01:20.292Z,49.87
2018-11-02T10:03:49.053Z,50.18
2018-11-02T10:06:17.970Z,49.37
2018-11-02T10:08:46.691Z,49.03
2018-11-02T10:11:15.692Z,48.48
2018-11-02T10:13:44.884Z,49.05
2018-11-02T10:16:13.617Z,48.73
2018-11-02T10:18:42.373Z,48.50
2018-11-02T10:21:14.311Z,48.21
2018-11-02T10:23:43.072Z,47.92
2018-11-02T10:26:11.801Z,47.87
2018-11-02T10:28:40.643Z,46.62
2018-11-02T10:31:10.707Z,46.55
2018-11-02T10:33:39.714Z,46.08
2018-11-02T10:36:08.571Z,45.90
2018-11-02T10:38:38.776Z,46.07
2018-11-02T10:41:08.365Z,45.16
2018-11-02T10:43:38.199Z,44.67
2018-11-02T10:46:07.040Z,44.04
2018-11-02T10:48:35.814Z,44.39
2018-11-02T10:51:04.624Z,44.07
2018-11-02T10:53:33.306Z,43.91
2018-11-02T10:56:02.063Z,44.57
2018-11-02T10:58:30.716Z,43.79
2018-11-02T11:01:04.682Z,43.15
2018-11-02T11:03:33.293Z,42.41
2018-11-02T11:06:02.237Z,41.59
2018-11-02T11:08:30.920Z,40.75
2018-11-02T11:10:59.656Z,42.10
2018-11-02T11:13:28.704Z,41.07
2018-11-02T11:15:57.207Z,40.57
2018-11-02T11:18:25.916Z,41.71
2018-11-02T11:20:55.016Z,39.65
2018-11-02T11:23:24.341Z,40.14
2018-11-02T11:25:53.086Z,38.68
2018-11-02T11:28:21.945Z,39.85
2018-11-02T11:30:50.664Z,39.69
2018-11-02T11:33:20.092Z,39.97
2018-11-02T11:35:49.663Z,39.37
2018-11-02T11:38:20.040Z,38.47
2018-11-02T11:40:48.838Z,39.34
2018-11-02T11:43:17.550Z,38.43
2018-11-02T11:45:46.526Z,37.91
2018-11-02T11:48:16.120Z,38.05
2018-11-02T11:50:45.064Z,37.69
2018-11-02T11:53:14.708Z,37.60
2018-11-02T11:55:43.431Z,36.78
2018-11-02T11:58:12.177Z,36.43
2018-11-02T12:00:41.012Z,36.09
2018-11-02T12:03:09.785Z,35.73
2018-11-02T12:05:39.695Z,35.80
2018-11-02T12:08:08.757Z,34.49
2018-11-02T12:10:37.507Z,34.02
2018-11-02T12:13:06.462Z,34.21
2018-11-02T12:15:35.366Z,34.72
2018-11-02T12:18:04.213Z,34.09
2018-11-02T12:20:32.912Z,33.75
2018-11-02T12:23:02.960Z,33.22
2018-11-02T12:25:32.005Z,34.49
2018-11-02T12:28:06.134Z,34.45
2018-11-02T12:30:34.858Z,34.34
2018-11-02T12:33:03.540Z,34.50
2018-11-02T12:35:32.284Z,34.17
2018-11-02T12:38:01.042Z,33.84
2018-11-02T12:40:29.728Z,33.91
2018-11-02T12:42:58.466Z,34.98
2018-11-02T12:45:27.176Z,34.27
2018-11-02T12:47:55.940Z,34.94
2018-11-02T12:50:27.402Z,34.39
2018-11-02T12:52:57.410Z,34.99
2018-11-02T12:55:26.177Z,35.02
2018-11-02T12:57:54.926Z,34.49
2018-11-02T13:00:24.733Z,34.74
2018-11-02T13:02:54.436Z,33.49
2018-11-02T13:05:23.141Z,34.86
2018-11-02T13:07:51.855Z,34.46
2018-11-02T13:10:21.840Z,34.44
2018-11-02T13:12:50.564Z,33.92
2018-11-02T13:15:20.829Z,34.11
2018-11-02T13:17:50.135Z,35.38
2018-11-02T13:20:19.091Z,35.23
2018-11-02T13:22:48.631Z,35.31
2018-11-02T13:25:19.465Z,35.85
2018-11-02T13:27:48.910Z,36.89
2018-11-02T13:30:17.807Z,36.65
2018-11-02T13:32:46.478Z,36.90
2018-11-02T13:35:16.677Z,36.15
2018-11-02T13:37:45.864Z,35.10
2018-11-02T13:40:16.309Z,35.75
2018-11-02T13:42:45.150Z,34.40
2018-11-02T13:45:15.752Z,35.40
2018-11-02T13:47:45.791Z,35.34
2018-11-02T13:50:14.718Z,34.63
2018-11-02T13:52:44.362Z,35.30
2018-11-02T13:55:13.566Z,35.47
2018-11-02T13:57:42.485Z,35.72
2018-11-02T14:00:16.269Z,34.97
2018-11-02T14:02:45.109Z,35.71
2018-11-02T14:05:15.032Z,35.03
2018-11-02T14:07:44.101Z,34.76
2018-11-02T14:10:13.324Z,35.34
2018-11-02T14:12:42.305Z,35.61
2018-11-02T14:15:13.474Z,36.34
2018-11-02T14:17:43.873Z,35.49
2018-11-02T14:24:49.920Z,36.12
2018-11-02T14:27:18.731Z,36.42
2018-11-02T14:29:47.464Z,36.20
2018-11-02T14:32:16.217Z,36.37
2018-11-02T14:34:45.068Z,36.83
2018-11-02T14:37:13.949Z,37.57
2018-11-02T14:39:42.656Z,38.37
2018-11-02T14:42:11.770Z,38.43
2018-11-02T14:44:40.448Z,38.81
2018-11-02T14:47:09.149Z,39.64
2018-11-02T14:49:37.801Z,39.28
2018-11-02T14:52:06.673Z,40.49
2018-11-02T14:54:35.365Z,40.07
2018-11-02T14:57:04.040Z,40.81
2018-11-02T14:59:32.793Z,41.08
2018-11-02T15:02:01.452Z,40.88
2018-11-02T15:04:30.143Z,41.13
2018-11-02T15:06:58.869Z,42.18
2018-11-02T15:09:27.596Z,42.11
2018-11-02T15:11:56.323Z,42.25
2018-11-02T15:14:25.008Z,42.58
2018-11-02T15:16:53.700Z,41.76
2018-11-02T15:19:22.445Z,41.41
2018-11-02T15:21:51.158Z,42.32
2018-11-02T15:24:19.941Z,42.53
2018-11-02T15:26:48.611Z,41.98
2018-11-02T15:29:17.323Z,43.11
2018-11-02T15:31:46.062Z,43.19
2018-11-02T15:34:14.842Z,43.52
2018-11-02T15:36:43.489Z,43.50
2018-11-02T15:39:13.154Z,44.33
2018-11-02T15:41:42.259Z,43.49
2018-11-02T15:44:11.121Z,43.57
2018-11-02T15:46:39.929Z,43.93
2018-11-02T15:49:08.663Z,44.29
2018-11-02T15:51:37.374Z,44.38
2018-11-02T15:54:06.486Z,44.72
2018-11-02T15:56:35.276Z,44.80
2018-11-02T15:59:04.091Z,44.81
2018-11-02T16:01:32.789Z,44.76
2018-11-02T16:04:37.862Z,45.25
2018-11-02T16:07:06.787Z,45.13
2018-11-02T16:09:35.711Z,45.70
2018-11-02T16:12:04.502Z,46.41
2018-11-02T16:14:33.395Z,46.96
2018-11-02T16:19:25.764Z,46.71
2018-11-02T16:31:02.129Z,45.91
2018-11-02T16:33:30.790Z,44.92
2018-11-02T16:35:59.433Z,44.66
2018-11-02T16:38:28.157Z,43.47
2018-11-02T16:40:56.825Z,43.55
2018-11-02T16:43:25.569Z,42.86
2018-11-02T16:45:54.290Z,43.18
2018-11-02T16:48:22.948Z,42.44
2018-11-02T16:50:51.632Z,42.72
2018-11-02T16:53:20.318Z,43.26
2018-11-02T16:55:49.088Z,43.43
2018-11-02T16:58:17.801Z,44.67
2018-11-02T17:00:46.524Z,44.62
2018-11-02T17:03:15.292Z,45.01
2018-11-02T17:05:44.057Z,45.00
2018-11-02T17:08:12.858Z,44.52
2018-11-02T17:10:41.557Z,45.72
2018-11-02T17:13:10.192Z,45.12
2018-11-02T17:15:38.913Z,44.31
2018-11-02T17:18:07.738Z,45.56
2018-11-02T17:20:36.436Z,45.07
2018-11-02T17:23:05.241Z,46.71
2018-11-02T17:25:34.009Z,48.38
2018-11-02T17:28:03.330Z,50.79
2018-11-02T17:30:32.044Z,52.51
2018-11-02T17:33:00.745Z,54.08
2018-11-02T17:35:44.190Z,55.55
2018-11-02T17:38:12.850Z,56.64
2018-11-02T17:40:41.537Z,57.03
2018-11-02T17:43:10.284Z,57.56
2018-11-02T17:45:39.000Z,57.44
2018-11-02T17:48:07.684Z,58.76
2018-11-02T17:50:37.075Z,58.52
2018-11-02T17:53:05.883Z,57.90
2018-11-02T17:55:34.537Z,58.36
2018-11-02T17:58:03.337Z,58.34
2018-11-02T18:00:32.235Z,58.00
2018-11-02T18:03:00.929Z,58.08
2018-11-02T18:05:29.669Z,58.12
2018-11-02T18:07:58.404Z,57.82
2018-11-02T18:10:27.148Z,58.26
2018-11-02T18:12:55.882Z,58.68
2018-11-02T18:15:24.616Z,58.59
2018-11-02T18:17:53.359Z,58.90
2018-11-02T18:20:22.076Z,58.53
2018-11-02T18:22:50.802Z,58.82
2018-11-02T18:25:19.646Z,58.93
2018-11-02T18:27:48.387Z,58.74
2018-11-02T18:30:17.166Z,58.86
2018-11-02T18:32:45.855Z,59.21
2018-11-02T18:35:14.594Z,59.17
2018-11-02T18:37:43.372Z,59.28
2018-11-02T18:40:13.350Z,59.45
2018-11-02T18:42:42.301Z,59.81
2018-11-02T18:45:12.660Z,60.26
2018-11-02T18:47:48.739Z,60.51
2018-11-02T18:50:18.671Z,60.57
2018-11-02T18:52:47.945Z,60.96
2018-11-02T18:55:17.190Z,61.57
2018-11-02T18:57:46.020Z,61.78
2018-11-02T19:00:14.927Z,62.41
2018-11-02T19:02:43.737Z,62.85
2018-11-02T19:05:15.702Z,62.83
2018-11-02T19:07:44.507Z,63.21
2018-11-02T19:10:13.460Z,63.62
2018-11-02T19:12:42.757Z,63.71
2018-11-02T19:15:14.178Z,64.53
2018-11-02T19:17:43.176Z,64.82
2018-11-02T19:20:12.553Z,65.21
2018-11-02T19:22:41.248Z,65.81
2018-11-02T19:25:11.277Z,65.96
2018-11-02T19:27:40.017Z,66.35
2018-11-02T19:30:10.501Z,66.38
2018-11-02T19:32:39.338Z,66.81
2018-11-02T19:35:08.757Z,67.29
2018-11-02T19:37:37.490Z,67.32
2018-11-02T19:40:08.312Z,67.49
2018-11-02T19:42:37.012Z,66.70
2018-11-02T19:45:05.887Z,68.02
2018-11-02T19:48:09.929Z,68.20
2018-11-02T19:50:38.659Z,68.24
2018-11-02T19:53:08.361Z,68.07
2018-11-02T19:55:37.182Z,68.27
2018-11-02T19:58:06.203Z,68.57
2018-11-02T20:00:35.045Z,69.55
2018-11-02T20:03:03.732Z,69.28
2018-11-02T20:05:32.413Z,69.11
2018-11-02T20:08:01.750Z,69.41
2018-11-02T20:10:30.446Z,69.16
2018-11-02T20:12:59.159Z,69.41
2018-11-02T20:15:27.898Z,69.50
2018-11-02T20:17:56.646Z,69.53
2018-11-02T20:20:25.466Z,70.02
2018-11-02T20:22:54.097Z,70.51
2018-11-02T20:25:22.777Z,70.06
2018-11-02T20:27:52.400Z,70.48
2018-11-02T20:30:21.938Z,70.43
2018-11-02T20:32:50.671Z,70.85
2018-11-02T20:35:20.506Z,71.44
2018-11-02T20:37:49.225Z,71.70
2018-11-02T20:40:19.028Z,71.92
2018-11-02T20:42:47.857Z,72.08
2018-11-02T20:45:17.067Z,72.83
2018-11-02T20:47:54.727Z,72.55
2018-11-02T20:50:23.474Z,72.47
2018-11-02T20:52:52.763Z,72.61
2018-11-02T20:55:21.456Z,73.03
2018-11-02T20:57:50.144Z,72.94
2018-11-02T21:00:20.348Z,73.74
2018-11-02T21:02:49.141Z,73.62
2018-11-02T21:05:18.913Z,73.45
2018-11-02T21:07:48.238Z,73.74
2018-11-02T21:10:18.285Z,74.16
2018-11-02T21:12:47.168Z,74.74
2018-11-02T21:15:17.245Z,74.89
2018-11-02T21:17:46.108Z,74.68
2018-11-02T21:20:16.349Z,74.79
2018-11-02T21:22:45.105Z,74.84
2018-11-02T21:25:14.450Z,74.77
2018-11-02T21:27:43.750Z,75.36
2018-11-02T21:30:15.711Z,75.48
2018-11-02T21:32:45.097Z,75.66
2018-11-02T21:35:14.252Z,75.92
2018-11-02T21:37:42.941Z,75.89
2018-11-02T21:40:13.676Z,76.20
2018-11-02T21:42:42.946Z,76.43
2018-11-02T21:45:12.469Z,76.33
2018-11-02T21:47:41.209Z,76.47
2018-11-02T21:50:10.632Z,76.27
2018-11-02T21:52:39.383Z,76.28
2018-11-02T21:55:08.765Z,76.33
2018-11-02T21:57:37.667Z,76.46
2018-11-02T22:00:13.117Z,76.86
2018-11-02T22:02:42.020Z,76.90
2018-11-02T22:05:11.994Z,76.91
2018-11-02T22:07:41.196Z,77.12
2018-11-02T22:10:10.741Z,77.56
2018-11-02T22:12:39.745Z,77.56
2018-11-02T22:15:09.236Z,77.38
2018-11-02T22:17:37.942Z,77.30
2018-11-02T22:20:08.664Z,77.61
2018-11-02T22:22:37.359Z,77.59
2018-11-02T22:25:07.156Z,77.75
2018-11-02T22:27:36.009Z,77.27
2018-11-02T22:30:13.174Z,77.56
2018-11-02T22:32:42.001Z,77.75
2018-11-02T22:35:11.022Z,77.68
2018-11-02T22:37:40.220Z,77.65
2018-11-02T22:40:10.365Z,77.83
2018-11-02T22:42:39.471Z,78.26
2018-11-02T22:45:08.752Z,77.73
2018-11-02T22:47:37.453Z,77.70
2018-11-02T22:50:07.048Z,78.29
2018-11-02T22:52:35.976Z,77.83
2018-11-02T22:55:04.807Z,77.93
2018-11-02T22:57:33.551Z,78.32
2018-11-02T23:00:02.344Z,78.40
2018-11-02T23:02:31.352Z,78.22
2018-11-02T23:05:00.071Z,78.06
2018-11-02T23:07:28.779Z,78.10
2018-11-02T23:09:57.492Z,77.74
2018-11-02T23:12:26.238Z,78.25
2018-11-02T23:14:54.944Z,77.61
2018-11-02T23:17:23.685Z,77.81
2018-11-02T23:19:52.424Z,77.94
